Time;durP1;ratioP1;P1;durP2;ratioP2;P2;SDS_P1;SDS_P2;PMS_P1;PMS_P2;Temp;Humidity;BMP_temperature;BMP_pressure;BME280_temperature;BME280_humidity;BME280_pressure;Samples;Min_cycle;Max_cycle;Signal;HPM_P1;HPM_P2
2021/08/26 00:00:41;;;;;;;5.33;4.37;;;21.00;99.90;;;21.22;55.45;101166.34;4970786;27;96952;-53
2021/08/26 00:05:51;;;;;;;6.90;5.13;;;20.90;99.90;;;21.18;55.73;101154.13;4968098;27;97672;-56
2021/08/26 00:08:22;;;;;;;6.30;5.70;;;21.00;99.90;;;21.05;56.07;101152.34;4954211;28;99256;-52
2021/08/26 00:10:51;;;;;;;6.37;5.47;;;20.80;99.90;;;21.14;56.35;101155.34;4966733;28;103469;-54
2021/08/26 00:13:17;;;;;;;8.50;6.43;;;20.90;99.90;;;21.17;56.26;101155.13;4986600;27;97989;-51
2021/08/26 00:15:46;;;;;;;8.70;7.57;;;20.90;99.90;;;21.16;56.20;101153.41;4967208;27;98073;-53
2021/08/26 00:18:19;;;;;;;11.80;8.10;;;20.90;99.90;;;21.19;56.17;101154.03;4970808;28;100660;-55
2021/08/26 00:20:50;;;;;;;9.97;8.47;;;20.90;99.90;;;21.19;56.15;101148.66;4968783;28;102967;-53
2021/08/26 00:23:16;;;;;;;10.13;9.03;;;21.00;99.90;;;21.19;56.31;101151.34;4973118;28;99570;-54
2021/08/26 00:25:41;;;;;;;10.77;9.67;;;21.00;99.90;;;21.20;56.13;101144.16;4984125;27;97529;-52
2021/08/26 00:28:07;;;;;;;11.50;10.30;;;20.90;99.90;;;21.20;56.14;101144.16;4970603;28;118391;-54
2021/08/26 00:30:33;;;;;;;12.13;10.77;;;21.00;99.90;;;21.21;55.76;101135.13;4982813;27;98499;-55
2021/08/26 00:32:59;;;;;;;11.37;10.13;;;21.00;99.90;;;21.24;55.95;101129.53;4953571;28;99039;-49
2021/08/26 00:35:25;;;;;;;11.60;10.40;;;21.00;99.90;;;21.30;55.93;101123.78;4964656;27;98528;-56
2021/08/26 00:37:51;;;;;;;11.13;10.03;;;21.00;99.90;;;21.08;55.85;101125.28;4972373;28;101239;-47
2021/08/26 00:40:16;;;;;;;13.07;10.77;;;20.90;99.90;;;21.08;56.50;101124.44;4973338;28;99019;-52
2021/08/26 00:42:42;;;;;;;11.37;10.17;;;20.80;99.90;;;21.10;56.47;101115.31;4985328;27;99462;-51
2021/08/26 00:45:10;;;;;;;11.33;10.23;;;20.90;99.90;;;21.06;56.75;101115.66;4972267;28;97483;-53
2021/08/26 00:47:37;;;;;;;13.17;10.37;;;20.80;99.90;;;21.13;56.52;101119.59;4985231;27;100992;-53
2021/08/26 00:50:04;;;;;;;12.23;10.77;;;20.90;99.90;;;21.10;56.52;101111.75;4975593;27;97214;-55
2021/08/26 00:52:30;;;;;;;11.53;10.43;;;20.90;99.90;;;21.12;56.70;101119.69;4967642;27;97860;-54
2021/08/26 00:54:57;;;;;;;11.50;9.00;;;20.90;99.90;;;20.96;57.41;101120.81;4974354;28;98622;-54
2021/08/26 00:57:24;;;;;;;8.70;7.17;;;20.80;99.90;;;20.83;57.59;101103.91;4968820;27;100321;-52
2021/08/26 00:59:55;;;;;;;10.13;8.80;;;20.60;99.90;;;20.87;57.60;101104.53;4989422;27;102612;-51
2021/08/26 01:02:45;;;;;;;8.40;7.63;;;20.60;99.90;;;20.98;57.30;101107.31;4969887;27;97667;-58
2021/08/26 01:05:38;;;;;;;9.10;8.03;;;20.70;99.90;;;20.90;57.58;101097.13;4971497;28;97373;-54
2021/08/26 01:08:15;;;;;;;9.93;7.73;;;20.60;99.90;;;20.93;57.78;101093.34;4964163;28;102666;-49
2021/08/26 01:10:55;;;;;;;10.50;8.50;;;20.70;99.90;;;21.01;57.26;101102.56;4983959;27;100803;-52
2021/08/26 01:13:21;;;;;;;10.23;8.73;;;20.70;99.90;;;20.92;58.92;101087.13;4967786;27;97912;-51
2021/08/26 01:16:14;;;;;;;8.70;7.90;;;20.70;99.90;;;20.92;58.31;101087.13;4955846;28;98128;-49
2021/08/26 01:18:46;;;;;;;10.47;7.23;;;20.60;99.90;;;20.97;57.63;101079.59;4965223;27;99500;-51
2021/08/26 01:21:18;;;;;;;10.87;9.27;;;20.70;99.90;;;21.00;57.63;101084.78;4988182;27;97320;-52
2021/08/26 01:23:58;;;;;;;9.27;8.33;;;20.70;99.90;;;21.01;58.46;101070.41;4981705;27;97565;-49
2021/08/26 01:26:40;;;;;;;9.50;8.50;;;20.80;99.90;;;20.96;58.34;101071.69;4964221;27;97223;-53
2021/08/26 01:29:07;;;;;;;11.30;9.03;;;20.60;99.90;;;20.94;58.42;101069.09;4972827;27;99724;-49
2021/08/26 01:31:34;;;;;;;10.73;9.63;;;20.60;99.90;;;21.01;57.67;101065.03;4965910;27;97468;-49
2021/08/26 01:34:03;;;;;;;11.83;10.67;;;20.70;99.90;;;21.08;57.73;101065.44;4985368;27;99770;-48
2021/08/26 01:36:32;;;;;;;12.03;10.83;;;20.80;99.90;;;21.08;58.12;101060.91;4982401;27;97497;-51
2021/08/26 01:39:08;;;;;;;13.67;12.33;;;20.80;99.90;;;21.08;57.66;101060.91;4968375;28;99759;-50
2021/08/26 01:41:46;;;;;;;13.03;11.73;;;20.70;99.90;;;21.17;57.39;101059.41;4963491;28;99358;-53
2021/08/26 01:44:24;;;;;;;13.13;11.80;;;20.80;99.90;;;21.19;58.32;101053.91;4969633;27;98928;-48
2021/08/26 01:47:16;;;;;;;14.23;12.57;;;20.90;99.90;;;21.17;58.08;101053.19;4963774;27;97429;-55
2021/08/26 01:49:50;;;;;;;12.43;11.13;;;20.80;99.90;;;21.13;58.56;101052.56;4934793;27;97640;-52
2021/08/26 01:52:22;;;;;;;12.57;11.37;;;20.80;99.90;;;21.15;58.11;101044.41;4966828;27;97251;-51
2021/08/26 01:54:58;;;;;;;13.87;11.53;;;20.80;99.90;;;21.17;57.56;101031.72;4980472;27;98367;-51
2021/08/26 01:57:29;;;;;;;13.33;11.93;;;20.90;99.90;;;21.16;57.55;101036.22;4977006;27;99152;-49
2021/08/26 01:59:57;;;;;;;12.33;11.03;;;20.80;99.90;;;21.16;58.51;101035.38;4979158;27;99644;-51
2021/08/26 02:02:23;;;;;;;11.37;10.23;;;20.80;99.90;;;21.10;58.66;101029.47;4963549;27;98818;-48
2021/08/26 02:04:48;;;;;;;9.33;7.77;;;20.80;99.90;;;21.11;58.43;101022.28;4947926;28;102022;-52
2021/08/26 02:07:15;;;;;;;9.33;8.30;;;20.80;99.90;;;20.97;58.99;101028.66;4984333;27;97611;-54
2021/08/26 02:09:40;;;;;;;8.43;7.53;;;20.70;99.90;;;20.88;60.02;101018.63;4966816;27;98304;-50
2021/08/26 02:12:06;;;;;;;7.47;6.77;;;20.70;99.90;;;20.71;59.95;101013.63;4968671;27;99432;-48
2021/08/26 02:14:32;;;;;;;7.07;6.33;;;20.40;99.90;;;20.68;61.16;101019.19;4963223;27;98073;-50
2021/08/26 02:16:58;;;;;;;6.40;5.80;;;20.50;99.90;;;20.71;60.21;101013.63;4951689;28;99592;-49
2021/08/26 02:19:24;;;;;;;5.67;5.17;;;20.50;99.90;;;20.76;59.83;101011.47;4962092;27;99063;-48
2021/08/26 02:21:50;;;;;;;5.73;5.13;;;20.50;99.90;;;20.82;59.82;101016.38;4978621;27;115334;-53
2021/08/26 02:24:16;;;;;;;5.87;5.27;;;20.60;99.90;;;20.66;60.35;101010.41;4985045;27;99436;-46
2021/08/26 02:26:42;;;;;;;5.63;4.80;;;20.40;99.90;;;20.65;61.02;101024.78;4982191;27;100543;-54
2021/08/26 02:29:08;;;;;;;4.57;3.97;;;20.40;99.90;;;20.68;60.27;101024.56;4969321;27;98381;-50
2021/08/26 02:31:34;;;;;;;4.53;4.13;;;20.40;99.90;;;20.77;59.79;101045.34;4964360;28;98760;-52
2021/08/26 02:34:00;;;;;;;3.13;2.83;;;20.60;99.90;;;20.78;59.24;101041.69;4983448;27;98226;-54
2021/08/26 02:36:26;;;;;;;5.67;3.30;;;20.50;99.90;;;20.87;58.97;101035.69;4967985;27;98618;-51
2021/08/26 02:38:52;;;;;;;3.00;2.70;;;20.60;99.90;;;20.86;58.82;101047.38;4982032;27;99023;-50
2021/08/26 02:41:20;;;;;;;5.00;2.70;;;20.60;99.90;;;20.91;58.69;101047.88;4983535;27;96983;-53
2021/08/26 02:43:45;;;;;;;3.83;2.87;;;20.60;99.90;;;20.99;58.13;101048.19;4945981;28;97521;-50
2021/08/26 02:46:11;;;;;;;2.83;2.20;;;20.70;99.90;;;21.00;58.26;101044.56;4966284;28;98365;-51
2021/08/26 02:48:37;;;;;;;3.90;2.73;;;20.70;99.90;;;21.05;58.08;101050.41;4965233;27;97542;-51
2021/08/26 02:51:03;;;;;;;3.07;2.70;;;20.70;99.90;;;21.02;58.23;101039.94;4967882;28;98633;-53
2021/08/26 02:53:29;;;;;;;4.00;2.67;;;20.70;99.90;;;21.12;57.22;101039.22;4982130;27;101243;-48
2021/08/26 02:55:57;;;;;;;4.93;3.00;;;20.80;99.90;;;21.00;58.23;101044.56;4992770;28;97307;-52
2021/08/26 02:58:24;;;;;;;5.30;2.83;;;20.60;99.90;;;21.10;58.00;101042.88;4984620;27;100621;-52
2021/08/26 03:00:50;;;;;;;2.60;2.17;;;20.70;99.90;;;21.05;58.21;101045.06;4989593;28;97309;-51
2021/08/26 03:03:16;;;;;;;2.93;2.07;;;20.70;99.90;;;21.16;57.83;101046.09;4975867;28;97249;-50
2021/08/26 03:05:42;;;;;;;5.93;2.90;;;20.80;99.90;;;21.12;57.32;101039.22;4986607;27;97558;-51
2021/08/26 03:08:07;;;;;;;6.00;2.90;;;20.80;99.90;;;21.16;57.77;101038.06;4990808;28;117968;-51
2021/08/26 03:10:34;;;;;;;2.97;2.03;;;20.70;99.90;;;21.21;57.67;101049.28;4985121;28;108443;-52
2021/08/26 03:13:00;;;;;;;2.50;2.30;;;20.80;99.90;;;21.18;57.60;101044.16;4993414;28;97035;-47
2021/08/26 03:15:26;;;;;;;2.77;2.27;;;20.80;99.90;;;21.21;57.66;101044.78;4986250;28;97588;-52
2021/08/26 03:17:52;;;;;;;4.93;3.00;;;20.80;99.90;;;21.10;57.72;101042.88;4993019;28;98446;-53
2021/08/26 03:20:20;;;;;;;2.70;2.13;;;20.70;99.90;;;21.10;57.89;101029.47;4988704;28;97712;-53
2021/08/26 03:22:47;;;;;;;3.10;2.00;;;20.60;99.90;;;21.09;57.90;101033.13;5003389;27;97348;-52
2021/08/26 03:25:13;;;;;;;4.73;2.53;;;20.60;99.90;;;21.06;57.89;101038.72;4986121;28;97238;-49
2021/08/26 03:27:39;;;;;;;8.27;2.80;;;20.60;99.90;;;21.06;57.73;101036.03;4986046;28;97243;-51
2021/08/26 03:30:06;;;;;;;4.90;2.93;;;20.60;99.90;;;21.02;58.20;101034.56;4992559;28;97087;-50
2021/08/26 03:32:34;;;;;;;4.60;2.60;;;20.50;99.90;;;20.99;58.23;101034.78;4984430;27;97036;-47
2021/08/26 03:35:00;;;;;;;3.60;2.40;;;20.40;99.90;;;20.99;58.25;101039.31;4998036;28;97961;-50
2021/08/26 03:37:26;;;;;;;4.73;2.70;;;20.40;99.90;;;20.99;58.12;101034.78;4985633;27;102652;-53
2021/08/26 03:39:52;;;;;;;2.30;2.10;;;20.50;99.90;;;21.02;58.05;101034.56;4993379;28;97600;-52
2021/08/26 03:42:19;;;;;;;2.23;1.90;;;20.50;99.90;;;21.07;58.04;101037.75;5008174;27;97430;-56
2021/08/26 03:44:44;;;;;;;2.67;2.00;;;20.60;99.90;;;21.05;57.88;101034.34;4984789;28;97565;-52
2021/08/26 03:47:11;;;;;;;10.13;3.50;;;20.60;99.90;;;21.07;57.80;101037.75;4991407;28;99940;-50
2021/08/26 03:49:37;;;;;;;6.83;2.70;;;20.60;99.90;;;21.04;57.99;101032.63;4990618;27;98892;-51
2021/08/26 03:52:04;;;;;;;2.10;1.90;;;20.60;99.90;;;21.02;58.18;101029.19;4989656;28;96948;-48
2021/08/26 03:54:30;;;;;;;7.23;3.00;;;20.50;99.90;;;21.00;58.19;101033.81;4989412;27;96962;-56
2021/08/26 03:56:56;;;;;;;4.70;3.33;;;20.50;99.90;;;20.92;58.20;101028.16;4988528;27;97266;-52
2021/08/26 03:59:22;;;;;;;5.30;3.20;;;20.40;99.90;;;20.88;58.60;101045.44;4992780;27;97217;-52
2021/08/26 04:01:48;;;;;;;5.60;3.60;;;20.30;99.90;;;20.91;58.54;101042.53;4992052;28;100329;-49
2021/08/26 04:04:14;;;;;;;3.00;1.90;;;20.40;99.90;;;20.93;58.51;101040.59;4990709;28;97511;-49
2021/08/26 04:06:40;;;;;;;6.97;3.93;;;20.40;99.90;;;20.96;58.43;101050.22;4989256;28;99590;-54
2021/08/26 04:09:06;;;;;;;5.87;3.70;;;20.50;99.90;;;21.01;58.26;101048.94;4993780;28;101872;-50
2021/08/26 04:11:32;;;;;;;1.93;1.73;;;20.60;99.90;;;21.06;58.03;101041.41;5005613;27;97308;-51
2021/08/26 04:13:58;;;;;;;2.13;1.70;;;20.60;99.90;;;21.09;57.92;101046.53;4988317;28;96993;-53
2021/08/26 04:16:24;;;;;;;6.37;2.80;;;20.70;99.90;;;21.13;57.97;101046.34;4984793;28;98943;-51
2021/08/26 04:18:50;;;;;;;2.57;1.90;;;20.70;99.90;;;21.17;57.88;101031.72;4990142;28;99239;-50
2021/08/26 04:21:15;;;;;;;5.87;3.37;;;20.70;99.90;;;21.15;57.89;101029.16;4993445;27;99004;-52
2021/08/26 04:23:41;;;;;;;3.57;2.87;;;20.70;99.90;;;21.13;57.96;101035.59;4986781;27;99086;-55
2021/08/26 04:26:07;;;;;;;4.20;2.57;;;20.60;99.90;;;21.14;58.07;101037.31;4980743;28;96927;-49
2021/08/26 04:28:33;;;;;;;2.93;1.97;;;20.60;99.90;;;21.12;57.77;101033.88;4991880;28;111446;-52
2021/08/26 04:30:59;;;;;;;5.70;3.30;;;20.60;99.90;;;21.14;57.97;101026.59;4988972;28;98018;-52
2021/08/26 04:33:25;;;;;;;3.73;2.47;;;20.60;99.90;;;21.15;58.09;101033.66;4982780;27;97288;-48
2021/08/26 04:35:51;;;;;;;4.23;2.20;;;20.60;99.90;;;21.10;58.23;101024.09;4992459;28;97660;-53
2021/08/26 04:38:17;;;;;;;3.27;2.00;;;20.60;99.90;;;21.12;58.19;101023.13;5012883;27;97680;-48
2021/08/26 04:40:43;;;;;;;2.87;2.17;;;20.60;99.90;;;21.08;58.25;101012.63;4976058;28;97120;-50
2021/08/26 04:43:09;;;;;;;6.20;3.53;;;20.50;99.90;;;21.05;58.32;101020.06;5005413;27;97247;-52
2021/08/26 04:45:34;;;;;;;5.67;3.13;;;20.50;99.90;;;21.02;58.35;101015.78;4985276;27;100750;-50
2021/08/26 04:48:00;;;;;;;5.33;2.83;;;20.50;99.90;;;21.01;58.46;101006.03;4988300;28;100188;-48
2021/08/26 04:50:26;;;;;;;4.17;2.37;;;20.50;99.90;;;20.94;58.60;101014.63;4986987;28;101205;-48
2021/08/26 04:52:52;;;;;;;9.53;3.93;;;20.40;99.90;;;20.98;58.35;101006.28;4987278;28;98468;-49
2021/08/26 04:55:18;;;;;;;6.90;3.50;;;20.50;99.90;;;21.00;58.23;101009.69;4989899;28;98649;-49
2021/08/26 04:57:43;;;;;;;9.63;4.00;;;20.50;99.90;;;20.94;57.67;101004.75;4984644;27;100923;-50
2021/08/26 05:00:10;;;;;;;7.80;3.43;;;20.50;99.90;;;20.95;57.82;101006.47;4994913;28;97164;-48
2021/08/26 05:02:36;;;;;;;5.57;3.30;;;20.50;99.90;;;20.98;58.07;101008.94;4984757;27;96945;-50
2021/08/26 05:05:03;;;;;;;7.57;3.13;;;20.60;99.90;;;20.93;58.18;101013.78;4971597;28;99873;-52
2021/08/26 05:07:28;;;;;;;3.03;2.00;;;20.50;99.90;;;20.99;58.41;101018.69;4987359;27;97221;-47
2021/08/26 05:09:54;;;;;;;6.70;3.13;;;20.60;99.90;;;20.85;56.57;101016.19;4967819;28;96966;-49
2021/08/26 05:12:20;;;;;;;2.70;1.60;;;20.50;99.90;;;20.93;58.36;101021.81;4988209;27;97619;-54
2021/08/26 05:14:46;;;;;;;6.77;2.43;;;20.50;99.90;;;21.01;58.19;101022.13;4988710;28;100415;-49
2021/08/26 05:17:12;;;;;;;7.40;3.70;;;20.60;99.90;;;21.04;57.22;101023.72;5003920;27;97449;-51
2021/08/26 05:19:37;;;;;;;2.43;1.90;;;20.70;99.90;;;21.04;57.95;101040.66;4990700;28;97419;-53
2021/08/26 05:22:03;;;;;;;3.63;1.73;;;20.60;99.90;;;21.11;57.86;101030.31;4987219;28;97456;-48
2021/08/26 05:24:30;;;;;;;3.53;1.87;;;20.70;99.90;;;21.10;57.72;101032.16;5000877;27;98485;-51
2021/08/26 05:26:55;;;;;;;3.37;1.97;;;20.70;99.90;;;21.18;57.71;101033.44;4992014;28;97360;-54
2021/08/26 05:29:21;;;;;;;7.90;3.20;;;20.80;99.90;;;21.16;56.85;101035.38;4978333;28;96983;-58
2021/08/26 05:31:47;;;;;;;8.50;3.43;;;20.80;99.90;;;21.14;56.98;101038.16;5005973;27;98131;-54
2021/08/26 05:34:13;;;;;;;2.17;1.87;;;20.70;99.90;;;21.09;57.83;101034.94;4986241;28;97594;-56
2021/08/26 05:36:39;;;;;;;9.17;3.40;;;20.60;99.90;;;21.09;57.74;101032.28;4985223;27;98294;-53
2021/08/26 05:39:05;;;;;;;4.20;2.30;;;20.60;99.90;;;21.12;57.74;101033.88;4994145;28;97434;-50
2021/08/26 05:41:31;;;;;;;2.93;1.77;;;20.60;99.90;;;21.14;57.73;101037.31;4987739;28;96825;-50
2021/08/26 05:43:57;;;;;;;5.83;2.77;;;20.70;99.90;;;21.15;57.60;101031.84;4989580;28;99613;-52
2021/08/26 05:46:22;;;;;;;4.80;1.80;;;20.70;99.90;;;21.16;57.66;101035.38;4985436;27;97437;-51
2021/08/26 05:48:48;;;;;;;3.23;2.23;;;20.70;99.90;;;21.03;57.70;101030.06;4989937;27;97538;-51
2021/08/26 05:51:14;;;;;;;5.03;2.60;;;20.60;99.90;;;21.04;57.80;101037.97;4988137;27;97431;-52
2021/08/26 05:53:40;;;;;;;2.70;1.67;;;20.60;99.90;;;21.08;57.99;101033.25;4999981;27;101024;-53
2021/08/26 05:56:06;;;;;;;5.03;2.57;;;20.60;99.90;;;20.93;58.25;101029.84;4984789;28;98511;-54
2021/08/26 05:58:32;;;;;;;8.37;3.03;;;20.50;99.90;;;20.89;56.41;101031.06;4985788;27;98517;-55
2021/08/26 06:00:57;;;;;;;4.50;2.67;;;20.50;99.90;;;20.88;58.06;101029.34;4989532;28;99651;-49
2021/08/26 06:03:23;;;;;;;7.13;3.23;;;20.40;99.90;;;20.70;54.65;101033.38;4984308;27;110351;-53
2021/08/26 06:05:49;;;;;;;2.40;1.57;;;20.30;99.90;;;20.77;58.47;101031.94;4988727;28;97109;-46
2021/08/26 06:08:15;;;;;;;8.67;3.07;;;20.30;99.90;;;20.78;56.98;101033.66;4987841;28;97124;-52
2021/08/26 06:10:41;;;;;;;8.33;2.90;;;20.30;99.90;;;20.79;55.95;101038.03;4985297;27;97540;-50
2021/08/26 06:13:06;;;;;;;8.53;3.03;;;20.40;99.90;;;20.76;57.51;101038.28;4988480;28;104170;-53
2021/08/26 06:15:32;;;;;;;6.60;2.30;;;20.30;99.90;;;20.80;57.69;101031.72;4986949;27;97315;-52
2021/08/26 06:17:58;;;;;;;3.63;2.03;;;20.30;99.90;;;20.82;58.59;101037.81;4991960;27;96873;-51
2021/08/26 06:20:24;;;;;;;8.10;2.87;;;20.30;99.90;;;20.85;58.28;101040.31;4991865;28;97789;-48
2021/08/26 06:22:50;;;;;;;4.30;2.10;;;20.40;99.90;;;20.88;58.43;101037.41;4995625;28;100145;-53
2021/08/26 06:25:16;;;;;;;4.13;1.70;;;20.40;99.90;;;20.90;58.29;101038.13;4993784;28;98400;-54
2021/08/26 06:27:42;;;;;;;5.50;2.40;;;20.40;99.90;;;20.94;58.16;101042.28;4985359;27;97315;-50
2021/08/26 06:30:11;;;;;;;8.20;3.00;;;20.50;99.90;;;20.91;56.43;101039.00;4992580;27;97414;-51
2021/08/26 06:32:38;;;;;;;7.63;2.77;;;20.50;99.90;;;20.78;53.19;101047.06;4977352;27;97982;-54
2021/08/26 06:35:06;;;;;;;8.27;2.30;;;20.40;99.90;;;20.86;58.22;101033.13;4985850;27;100206;-50
2021/08/26 06:37:32;;;;;;;8.60;2.70;;;20.40;99.90;;;20.88;54.74;101029.34;4962217;27;100275;-53
2021/08/26 06:39:59;;;;;;;6.80;2.50;;;20.50;99.90;;;20.96;58.01;101029.63;4974545;27;97110;-55
2021/08/26 06:42:26;;;;;;;7.80;2.80;;;20.60;99.90;;;20.99;55.27;101024.06;4967563;27;100097;-55
2021/08/26 06:44:52;;;;;;;8.73;2.50;;;20.60;99.90;;;20.94;56.97;101031.56;4975950;27;99292;-54
2021/08/26 06:47:18;;;;;;;9.30;2.93;;;20.60;99.90;;;20.99;56.04;101024.06;4975135;28;97887;-56
2021/08/26 06:49:44;;;;;;;6.80;2.70;;;20.70;99.90;;;20.97;56.76;101031.34;4967440;27;97114;-55
2021/08/26 06:52:10;;;;;;;8.60;2.80;;;20.60;99.90;;;20.90;54.72;101024.72;4970796;28;98318;-55
2021/08/26 06:54:37;;;;;;;6.90;2.20;;;20.50;99.90;;;20.93;56.81;101029.00;4983981;27;98774;-55
2021/08/26 06:57:05;;;;;;;5.93;2.53;;;20.50;99.90;;;20.98;57.57;101038.44;4970274;28;99835;-53
2021/08/26 06:59:31;;;;;;;7.50;2.57;;;20.60;99.90;;;20.89;55.06;101033.75;4968159;27;99450;-56
2021/08/26 07:01:57;;;;;;;7.43;2.50;;;20.50;99.90;;;20.82;53.20;101043.19;4973368;27;98460;-56
2021/08/26 07:04:23;;;;;;;6.93;2.47;;;20.40;99.90;;;20.90;57.15;101037.28;4970617;27;98012;-52
2021/08/26 07:06:53;;;;;;;6.00;2.47;;;20.50;99.90;;;20.90;57.05;101040.81;4987376;27;99284;-54
2021/08/26 07:09:21;;;;;;;8.57;2.50;;;20.50;99.90;;;20.02;53.45;101047.09;4967437;27;99741;-55
2021/08/26 07:11:47;;;;;;;7.97;2.20;;;19.80;99.90;;;20.33;58.66;101040.44;4960812;28;101733;-57
2021/08/26 07:14:13;;;;;;;6.07;2.27;;;19.90;99.90;;;20.46;58.21;101047.53;4984493;27;97667;-54
2021/08/26 07:16:39;;;;;;;5.90;2.10;;;20.10;99.90;;;20.39;53.99;101046.22;4976205;27;97595;-57
2021/08/26 07:19:05;;;;;;;5.73;2.17;;;20.10;99.90;;;20.55;58.05;101045.19;4967269;28;98712;-55
2021/08/26 07:21:30;;;;;;;5.03;2.00;;;20.20;99.90;;;20.43;54.08;101047.75;4981384;27;99536;-53
2021/08/26 07:23:56;;;;;;;9.37;2.47;;;20.20;99.90;;;20.59;57.30;101052.03;4970467;27;98100;-54
2021/08/26 07:26:22;;;;;;;9.57;2.43;;;20.30;99.90;;;20.63;57.45;101048.16;4962954;27;97619;-58
2021/08/26 07:28:49;;;;;;;10.07;3.00;;;20.30;99.90;;;20.65;56.17;101041.72;4965934;28;99997;-52
2021/08/26 07:31:15;;;;;;;13.43;3.53;;;20.40;99.90;;;20.73;55.28;101039.38;4971458;27;99584;-50
2021/08/26 07:33:40;;;;;;;8.77;2.90;;;20.50;99.90;;;20.79;56.68;101032.69;4957152;27;98857;-50
2021/08/26 07:36:06;;;;;;;12.93;3.57;;;20.50;99.90;;;20.67;56.73;101034.41;4967958;28;97316;-56
2021/08/26 07:38:32;;;;;;;8.80;3.80;;;20.50;99.90;;;20.66;57.08;101037.22;4967203;27;99371;-54
2021/08/26 07:40:58;;;;;;;8.77;3.90;;;20.40;99.90;;;20.60;56.89;101037.66;4978884;27;99156;-55
2021/08/26 07:43:25;;;;;;;12.80;4.23;;;20.40;99.90;;;20.70;57.25;101044.09;4965015;27;98717;-51
2021/08/26 07:45:52;;;;;;;13.33;3.70;;;20.50;99.90;;;20.72;57.22;101039.47;4969622;27;98538;-54
2021/08/26 07:48:18;;;;;;;9.50;3.23;;;20.40;99.90;;;20.72;56.11;101043.00;4973996;27;97247;-54
2021/08/26 07:50:45;;;;;;;13.53;4.03;;;20.50;99.90;;;20.62;56.00;101041.94;4981976;27;100484;-50
2021/08/26 07:53:11;;;;;;;9.17;3.90;;;20.40;99.90;;;20.71;57.32;101035.09;4968798;27;98257;-51
2021/08/26 07:55:37;;;;;;;10.93;4.10;;;20.40;99.90;;;20.76;57.43;101038.28;4959681;27;97676;-52
2021/08/26 07:58:04;;;;;;;12.27;3.77;;;20.40;99.90;;;20.79;56.51;101038.03;4969718;27;97992;-53
2021/08/26 08:00:29;;;;;;;8.73;3.87;;;20.50;99.90;;;20.84;57.00;101035.91;4975471;27;99252;-53
2021/08/26 08:02:55;;;;;;;10.93;3.97;;;20.50;99.90;;;20.84;57.30;101029.69;4966983;28;99125;-55
2021/08/26 08:05:21;;;;;;;13.40;4.20;;;20.60;99.90;;;20.84;57.22;101040.41;4974513;27;113949;-56
2021/08/26 08:07:47;;;;;;;11.57;4.60;;;20.50;99.90;;;20.83;55.85;101039.56;4974561;27;99426;-53
2021/08/26 08:10:15;;;;;;;14.30;5.43;;;20.60;99.90;;;20.85;57.38;101042.97;4981741;27;100539;-53
2021/08/26 08:12:41;;;;;;;12.10;4.13;;;20.60;99.90;;;20.84;56.27;101040.41;4959946;27;98459;-55
2021/08/26 08:15:08;;;;;;;13.03;4.07;;;20.60;99.90;;;20.82;57.24;101031.59;4965465;27;99321;-52
2021/08/26 08:17:34;;;;;;;12.93;4.23;;;20.50;99.90;;;20.79;57.41;101021.97;4960359;27;97969;-52
2021/08/26 08:20:00;;;;;;;10.23;4.00;;;20.50;99.90;;;20.72;57.09;101023.41;4978385;27;99360;-52
2021/08/26 08:22:26;;;;;;;9.67;3.93;;;20.50;99.90;;;20.83;57.17;101028.84;4969716;27;99038;-54
2021/08/26 08:24:52;;;;;;;14.77;3.97;;;20.60;99.90;;;20.84;57.52;101027.88;4962637;28;97433;-55
2021/08/26 08:27:18;;;;;;;13.03;4.40;;;20.60;99.90;;;20.86;57.03;101028.59;4963561;28;98757;-52
2021/08/26 08:29:43;;;;;;;12.50;4.07;;;20.60;99.90;;;20.75;57.34;101025.84;4960898;27;99894;-54
2021/08/26 08:32:09;;;;;;;12.37;3.37;;;20.50;99.90;;;20.83;57.50;101028.84;4980581;27;101500;-55
2021/08/26 08:34:35;;;;;;;12.80;4.33;;;20.50;99.90;;;20.78;57.55;101028.28;4961364;27;97252;-53
2021/08/26 08:37:03;;;;;;;10.90;3.90;;;20.50;99.90;;;20.86;57.50;101030.44;4965603;27;97606;-55
2021/08/26 08:39:29;;;;;;;12.93;3.97;;;20.50;99.90;;;20.92;57.47;101027.28;4972785;27;98562;-51
2021/08/26 08:41:55;;;;;;;7.40;3.93;;;20.60;99.90;;;20.96;57.03;101034.13;4981189;27;99247;-50
2021/08/26 08:44:21;;;;;;;4.93;2.57;;;20.60;99.90;;;20.98;57.41;101033.09;4960389;27;100971;-55
2021/08/26 08:46:55;;;;;;;7.60;3.10;;;20.60;99.90;;;21.03;57.25;101036.28;4965498;27;100451;-53
2021/08/26 08:49:21;;;;;;;4.13;2.10;;;20.60;99.90;;;21.05;57.44;101038.84;4978242;27;98422;-56
2021/08/26 08:51:52;;;;;;;10.50;3.90;;;20.70;99.90;;;20.99;57.55;101042.84;4980921;27;102629;-57
2021/08/26 08:54:19;;;;;;;6.33;3.10;;;20.60;99.90;;;21.06;57.46;101035.19;4984952;27;98828;-57
2021/08/26 08:56:45;;;;;;;10.77;3.50;;;20.60;99.90;;;20.93;56.09;101029.84;4961206;27;99216;-55
2021/08/26 08:59:11;;;;;;;9.97;3.43;;;20.60;99.90;;;20.84;56.50;101035.91;4959941;28;98687;-54
2021/08/26 09:01:37;;;;;;;5.17;2.30;;;20.50;99.90;;;20.92;57.62;101032.66;4959684;27;97778;-56
2021/08/26 09:04:06;;;;;;;3.77;2.00;;;20.60;99.90;;;20.90;57.91;101035.47;4972384;27;97893;-55
2021/08/26 09:06:40;;;;;;;5.77;2.73;;;20.60;99.90;;;21.01;56.33;101037.34;4960934;27;99006;-55
2021/08/26 09:09:08;;;;;;;6.13;2.60;;;20.70;99.90;;;20.91;57.41;101037.16;4968569;28;100259;-57
2021/08/26 09:11:35;;;;;;;5.30;2.60;;;20.60;99.90;;;21.04;57.51;101040.66;4963059;27;99346;-54
2021/08/26 09:14:12;;;;;;;5.07;2.40;;;20.70;99.90;;;21.10;57.20;101048.25;4971697;27;97827;-55
2021/08/26 09:16:42;;;;;;;4.90;2.50;;;20.80;99.90;;;21.10;57.49;101045.56;4974954;27;98549;-55
2021/08/26 09:19:27;;;;;;;6.13;2.33;;;20.80;99.90;;;21.12;57.65;101049.97;4984918;27;100899;-52
2021/08/26 09:21:54;;;;;;;8.37;2.67;;;20.70;99.90;;;21.03;56.46;101052.38;4962843;28;102844;-53
2021/08/26 09:24:20;;;;;;;6.87;3.13;;;20.70;99.90;;;20.97;58.50;101052.78;4949690;28;98920;-57
2021/08/26 09:26:51;;;;;;;6.37;3.23;;;20.60;99.90;;;20.96;58.00;101045.72;4962731;27;97781;-55
2021/08/26 09:29:19;;;;;;;8.37;3.13;;;20.50;99.90;;;20.99;57.49;101050.03;4972092;27;98588;-54
2021/08/26 09:31:45;;;;;;;6.67;3.83;;;20.60;99.90;;;20.83;58.72;101038.69;4961167;27;97118;-57
2021/08/26 09:34:18;;;;;;;6.27;2.67;;;20.50;99.90;;;20.88;58.58;101036.53;4967159;28;98172;-54
2021/08/26 09:36:46;;;;;;;10.23;3.20;;;20.40;99.90;;;20.79;60.54;101043.41;4975501;27;98404;-55
2021/08/26 09:39:19;;;;;;;6.27;2.93;;;20.40;99.90;;;20.88;58.34;101036.53;4965836;28;100025;-52
2021/08/26 09:41:57;;;;;;;9.13;3.63;;;20.40;99.90;;;20.84;59.16;101035.91;4978006;27;97838;-56
2021/08/26 09:44:35;;;;;;;7.93;3.10;;;20.50;99.90;;;20.66;58.95;101037.22;4962398;27;99180;-57
2021/08/26 09:47:04;;;;;;;7.47;3.33;;;20.30;99.90;;;20.66;60.68;101026.50;4966872;28;102729;-57
2021/08/26 09:49:35;;;;;;;13.33;3.60;;;20.20;99.90;;;20.63;59.64;101040.13;4961951;27;99102;-56
2021/08/26 09:52:16;;;;;;;7.10;3.30;;;20.20;99.90;;;20.49;60.43;101041.09;4966740;27;98847;-50
2021/08/26 09:54:50;;;;;;;6.20;2.83;;;20.10;99.90;;;20.57;59.71;101032.53;4961947;27;99326;-56
2021/08/26 09:57:27;;;;;;;7.20;3.10;;;20.10;99.90;;;20.57;59.59;101032.53;4968667;28;97651;-56
2021/08/26 10:00:05;;;;;;;9.00;3.47;;;20.10;99.90;;;20.54;59.44;101038.09;4977154;27;101670;-56
2021/08/26 10:02:32;;;;;;;7.20;3.40;;;20.10;99.90;;;20.52;59.51;101040.03;4982196;27;97953;-56
2021/08/26 10:04:58;;;;;;;8.67;3.27;;;20.10;99.90;;;20.54;59.66;101038.94;4986613;27;97503;-51
2021/08/26 10:07:27;;;;;;;7.20;3.40;;;20.10;99.90;;;20.52;59.43;101056.09;4982332;27;100033;-56
2021/08/26 10:09:53;;;;;;;5.70;3.00;;;20.10;99.90;;;20.33;60.53;101046.66;4981704;27;98705;-55
2021/08/26 10:12:19;;;;;;;12.77;5.40;;;19.90;99.90;;;19.23;63.96;101050.56;4970798;27;97502;-47
2021/08/26 10:14:49;;;;;;;10.43;4.90;;;19.20;99.90;;;19.67;63.58;101058.34;4963039;27;98741;-56